YPOK weather

Porepunkah Airport
Victoria, Australia

Public forecast

Using degrees Celsius for public forecast. Weather courtesy of forecast.io.

METAR (pilot weather report)

Report is more than 2 hours old.

Closest report is Wangaratta Airport, 33.5 nm (62.0 km) WNW. Retrieved 2019/03/26 18:00 UTC (2 hours ago):

YWGT 261800Z AUTO 18004KT 9999 // NCD 04/02 Q1022

TAF (pilot weather forecast)

Forecast is more than 12 hours old.

Closest forecast is Wangaratta Airport, 33.5 nm (62.0 km) WNW. Retrieved 2019/03/26 02:03 UTC (18 hours ago):

TAF YWGT 260016Z 2602/2614 24012KT 9999 SCT045 FM260700 20007KT CAVOK FM261100 VRB05KT CAVOK